Terminal Aerodrome Forecast
Issued by NWS

Home | Current Version | Previous Version | Text Only | Print | Product List | Glossary On
Versions: 1 2 3 4 5 6 7 8 9 10 11 12 13 14 15 16 17 18
969
FTUS46 KSEW 181128
TAFPAE
TAF
KPAE 181128Z 1812/1912 02004KT P6SM SCT250
     FM181500 VRB03KT P6SM BKN035 BKN250
     FM182100 24007KT P6SM BKN035 BKN070
     FM190000 32008KT P6SM BKN035 BKN070
     FM190900 32006KT P6SM BKN011 OVC020=

USA.gov is the U.S. government's official web portal to all federal, state and local government web resources and services.